createdAt,value
2022-12-01T00:01:22.487Z,1.87
2022-12-01T00:03:50.487Z,1.84
2022-12-01T00:06:20.470Z,1.83
2022-12-01T00:09:03.794Z,1.80
2022-12-01T00:11:33.660Z,1.71
2022-12-01T00:14:01.879Z,1.55
2022-12-01T00:16:30.592Z,1.52
2022-12-01T00:18:58.681Z,1.67
2022-12-01T00:21:27.825Z,1.73
2022-12-01T00:23:58.318Z,1.74
2022-12-01T00:26:27.385Z,1.67
2022-12-01T00:28:58.940Z,1.49
2022-12-01T00:31:27.539Z,1.59
2022-12-01T00:33:55.614Z,1.62
2022-12-01T00:36:24.040Z,1.50
2022-12-01T00:38:53.730Z,1.49
2022-12-01T00:41:22.215Z,1.38
2022-12-01T00:43:50.269Z,1.56
2022-12-01T00:46:20.223Z,1.64
2022-12-01T00:48:48.329Z,1.66
2022-12-01T00:51:16.539Z,1.48
2022-12-01T00:53:44.602Z,1.45
2022-12-01T00:56:12.531Z,1.65
2022-12-01T00:58:40.493Z,1.67
2022-12-01T01:01:08.585Z,1.52
2022-12-01T01:03:37.996Z,1.60
2022-12-01T01:06:07.288Z,1.46
2022-12-01T01:08:35.322Z,1.42
2022-12-01T01:11:03.867Z,1.44
2022-12-01T01:13:32.102Z,1.42
2022-12-01T01:16:01.023Z,1.38
2022-12-01T01:18:29.390Z,1.14
2022-12-01T01:21:00.699Z,1.40
2022-12-01T01:23:28.786Z,1.39
2022-12-01T01:26:02.533Z,1.45
2022-12-01T01:28:31.251Z,1.50
2022-12-01T01:30:59.580Z,1.32
2022-12-01T01:33:27.621Z,1.48
2022-12-01T01:35:55.584Z,1.43
2022-12-01T01:38:25.042Z,0.99
2022-12-01T01:40:52.978Z,1.28
2022-12-01T01:43:46.213Z,1.12
2022-12-01T01:46:16.474Z,1.21
2022-12-01T01:48:48.461Z,1.09
2022-12-01T01:51:18.735Z,1.14
2022-12-01T01:53:49.115Z,1.18
2022-12-01T01:56:17.164Z,1.21
2022-12-01T01:58:45.949Z,1.14
2022-12-01T02:01:14.004Z,1.12
2022-12-01T02:03:43.068Z,0.88
2022-12-01T02:06:11.865Z,0.99
2022-12-01T02:08:40.028Z,1.01
2022-12-01T02:11:48.699Z,1.07
2022-12-01T02:14:44.022Z,0.96
2022-12-01T02:17:22.877Z,1.10
2022-12-01T02:20:18.769Z,1.13
2022-12-01T02:23:00.397Z,1.00
2022-12-01T02:25:41.633Z,1.03
2022-12-01T02:28:36.104Z,1.06
2022-12-01T02:31:13.820Z,1.16
2022-12-01T02:33:52.274Z,1.29
2022-12-01T02:36:26.248Z,1.01
2022-12-01T02:39:01.715Z,1.09
2022-12-01T02:41:34.144Z,0.87
2022-12-01T02:44:07.068Z,0.94
2022-12-01T02:46:40.847Z,1.03
2022-12-01T02:49:14.685Z,1.07
2022-12-01T02:51:45.210Z,0.97
2022-12-01T02:54:15.796Z,1.07
2022-12-01T02:56:46.145Z,1.02
2022-12-01T02:59:16.019Z,1.07
2022-12-01T03:02:06.117Z,0.96
2022-12-01T03:04:44.992Z,1.01
2022-12-01T03:07:28.124Z,1.09
2022-12-01T03:10:06.048Z,1.01
2022-12-01T03:12:39.845Z,0.93
2022-12-01T03:15:12.264Z,1.03
2022-12-01T03:17:48.217Z,1.04
2022-12-01T03:20:20.740Z,1.05
2022-12-01T03:22:53.589Z,1.09
2022-12-01T03:25:24.874Z,1.10
2022-12-01T03:28:20.303Z,1.27
2022-12-01T03:30:46.531Z,1.05
2022-12-01T03:33:19.993Z,1.17
2022-12-01T03:35:53.649Z,1.08
2022-12-01T03:38:25.705Z,1.00
2022-12-01T03:40:58.732Z,0.90
2022-12-01T03:43:32.069Z,0.82
2022-12-01T03:46:08.873Z,1.15
2022-12-01T03:48:39.602Z,1.15
2022-12-01T03:51:15.352Z,1.27
2022-12-01T03:53:54.230Z,1.40
2022-12-01T03:56:26.526Z,1.23
2022-12-01T03:58:57.672Z,1.31
2022-12-01T04:01:26.674Z,1.33
2022-12-01T04:03:56.069Z,1.32
2022-12-01T04:06:24.001Z,1.39
2022-12-01T04:08:52.116Z,1.35
2022-12-01T04:11:37.733Z,1.32
2022-12-01T04:14:05.717Z,1.43
2022-12-01T04:16:33.732Z,1.16
2022-12-01T04:19:03.302Z,1.14
2022-12-01T04:21:31.297Z,1.12
2022-12-01T04:24:02.169Z,1.24
2022-12-01T04:26:32.299Z,1.24
2022-12-01T04:29:00.846Z,1.22
2022-12-01T04:31:29.049Z,1.03
2022-12-01T04:33:57.421Z,1.07
2022-12-01T04:36:28.386Z,1.13
2022-12-01T04:38:56.397Z,1.25
2022-12-01T04:41:24.531Z,1.24
2022-12-01T04:43:54.461Z,1.20
2022-12-01T04:46:22.787Z,1.10
2022-12-01T04:48:51.213Z,0.94
2022-12-01T04:51:19.497Z,1.26
2022-12-01T04:53:48.832Z,1.26
2022-12-01T04:56:17.028Z,1.36
2022-12-01T04:58:45.212Z,1.11
2022-12-01T05:01:16.461Z,1.07
2022-12-01T05:03:47.041Z,1.12
2022-12-01T05:06:17.717Z,1.03
2022-12-01T05:08:46.021Z,0.92
2022-12-01T05:11:16.156Z,1.05
2022-12-01T05:13:46.312Z,1.07
2022-12-01T05:16:16.215Z,1.10
2022-12-01T05:18:44.819Z,1.22
2022-12-01T05:21:11.881Z,1.17
2022-12-01T05:23:40.111Z,1.09
2022-12-01T05:26:10.276Z,1.02
2022-12-01T05:28:41.128Z,1.17
2022-12-01T05:31:09.218Z,1.07
2022-12-01T05:33:37.238Z,1.18
2022-12-01T05:36:05.788Z,1.18
2022-12-01T05:38:33.780Z,1.29
2022-12-01T05:41:01.787Z,1.22
2022-12-01T05:43:29.909Z,1.08
2022-12-01T05:45:59.695Z,1.01
2022-12-01T05:48:27.869Z,0.91
2022-12-01T05:50:55.789Z,0.70
2022-12-01T05:53:23.865Z,0.82
2022-12-01T05:55:54.444Z,0.79
2022-12-01T05:58:22.368Z,0.70
2022-12-01T06:00:50.341Z,0.65
2022-12-01T06:03:19.689Z,0.77
2022-12-01T06:05:47.646Z,0.69
2022-12-01T06:08:15.585Z,0.75
2022-12-01T06:10:43.544Z,0.85
2022-12-01T06:13:11.447Z,0.80
2022-12-01T06:15:39.449Z,0.76
2022-12-01T06:18:07.826Z,0.68
2022-12-01T06:20:37.225Z,0.67
2022-12-01T06:23:05.156Z,0.72
2022-12-01T06:25:33.228Z,0.80
2022-12-01T06:28:01.166Z,0.78
2022-12-01T06:30:29.365Z,0.77
2022-12-01T06:32:57.304Z,0.82
2022-12-01T06:35:25.238Z,0.86
2022-12-01T06:37:55.608Z,0.72
2022-12-01T06:40:23.644Z,0.80
2022-12-01T06:42:51.564Z,0.78
2022-12-01T06:45:19.532Z,0.70
2022-12-01T06:47:48.747Z,0.69
2022-12-01T06:50:16.935Z,0.77
2022-12-01T06:52:44.837Z,0.63
2022-12-01T06:55:14.251Z,0.67
2022-12-01T06:57:43.369Z,0.68
2022-12-01T07:00:13.673Z,0.65
2022-12-01T07:02:42.173Z,0.50
2022-12-01T07:05:10.640Z,0.55
2022-12-01T07:07:39.243Z,0.53
2022-12-01T07:10:09.273Z,0.73
2022-12-01T07:12:38.875Z,0.74
2022-12-01T07:15:08.991Z,0.67
2022-12-01T07:17:37.815Z,0.59
2022-12-01T07:20:06.701Z,0.73
2022-12-01T07:22:34.664Z,0.55
2022-12-01T07:25:02.597Z,0.54
2022-12-01T07:27:31.709Z,0.55
2022-12-01T07:30:01.213Z,0.43
2022-12-01T07:32:29.223Z,0.52
2022-12-01T07:34:57.141Z,0.55
2022-12-01T07:37:25.056Z,0.62
2022-12-01T07:39:52.950Z,0.66
2022-12-01T07:42:20.848Z,0.71
2022-12-01T07:44:48.780Z,0.66
2022-12-01T07:47:18.194Z,0.61
2022-12-01T07:49:46.091Z,0.55
2022-12-01T07:52:14.049Z,0.61
2022-12-01T07:54:42.005Z,0.45
2022-12-01T07:57:09.936Z,0.43
2022-12-01T07:59:37.873Z,0.48
2022-12-01T08:02:05.888Z,0.56
2022-12-01T08:04:35.256Z,0.55
2022-12-01T08:07:03.402Z,0.50
2022-12-01T08:09:31.469Z,0.48
2022-12-01T08:11:59.408Z,0.43
2022-12-01T08:14:27.392Z,0.47
2022-12-01T08:16:55.307Z,0.40
2022-12-01T08:19:23.230Z,0.45
2022-12-01T08:21:52.519Z,0.65
2022-12-01T08:24:20.429Z,0.71
2022-12-01T08:26:48.377Z,0.69
2022-12-01T08:29:20.150Z,0.59
2022-12-01T08:31:48.720Z,0.62
2022-12-01T08:34:17.024Z,0.63
2022-12-01T08:36:45.024Z,0.59
2022-12-01T08:39:14.372Z,0.71
2022-12-01T08:41:42.280Z,0.81
2022-12-01T08:44:11.209Z,0.71
2022-12-01T08:46:39.451Z,0.67
2022-12-01T08:49:08.071Z,0.79
2022-12-01T08:51:36.455Z,0.67
2022-12-01T08:54:05.608Z,0.76
2022-12-01T08:56:37.193Z,0.74
2022-12-01T08:59:05.680Z,0.71
2022-12-01T09:01:34.329Z,0.58
2022-12-01T09:04:08.662Z,0.63
2022-12-01T09:06:40.880Z,0.57
2022-12-01T09:09:09.969Z,0.71
2022-12-01T09:11:39.931Z,0.55
2022-12-01T09:14:08.039Z,0.69
2022-12-01T09:16:36.009Z,0.53
2022-12-01T09:19:04.857Z,0.70
2022-12-01T09:21:35.071Z,0.80
2022-12-01T09:24:03.633Z,0.62
2022-12-01T09:26:31.923Z,0.54
2022-12-01T09:29:03.531Z,0.48
2022-12-01T09:31:31.901Z,0.61
2022-12-01T09:34:02.360Z,0.60
2022-12-01T09:36:31.244Z,0.64
2022-12-01T09:38:59.301Z,0.78
2022-12-01T09:41:29.662Z,0.68
2022-12-01T09:44:05.804Z,0.74
2022-12-01T09:46:38.238Z,0.70
2022-12-01T09:49:13.488Z,0.79
2022-12-01T09:51:41.420Z,0.60
2022-12-01T09:54:13.239Z,0.60
2022-12-01T09:56:45.712Z,0.61
2022-12-01T09:59:22.705Z,0.69
2022-12-01T10:01:54.909Z,0.73
2022-12-01T10:04:27.950Z,0.79
2022-12-01T10:07:04.260Z,0.82
2022-12-01T10:09:39.303Z,0.84
2022-12-01T10:12:15.368Z,0.70
2022-12-01T10:14:46.298Z,0.71
2022-12-01T10:17:32.432Z,0.78
2022-12-01T10:20:05.987Z,0.98
2022-12-01T10:23:05.595Z,0.92
2022-12-01T10:25:42.084Z,1.04
2022-12-01T10:28:35.862Z,0.80
2022-12-01T10:31:16.169Z,0.88
2022-12-01T10:33:55.688Z,0.77
2022-12-01T10:36:24.405Z,0.78
2022-12-01T10:38:52.417Z,0.81
2022-12-01T10:41:23.584Z,0.88
2022-12-01T10:43:53.612Z,0.74
2022-12-01T10:46:27.998Z,0.79
2022-12-01T10:48:56.947Z,0.60
2022-12-01T10:51:26.857Z,0.50
2022-12-01T10:54:00.418Z,0.43
2022-12-01T10:56:28.722Z,0.48
2022-12-01T10:58:59.439Z,0.52
2022-12-01T11:01:32.150Z,0.39
2022-12-01T11:04:06.557Z,0.44
2022-12-01T11:06:36.077Z,0.69
2022-12-01T11:09:08.000Z,0.62
2022-12-01T11:11:38.509Z,0.76
2022-12-01T11:14:17.714Z,0.87
2022-12-01T11:16:49.036Z,0.81
2022-12-01T11:19:32.683Z,0.89
2022-12-01T11:22:02.940Z,0.75
2022-12-01T11:24:40.784Z,0.61
2022-12-01T11:27:17.729Z,0.70
2022-12-01T11:29:48.359Z,0.54
2022-12-01T11:32:22.868Z,0.65
2022-12-01T11:34:52.831Z,0.74
2022-12-01T11:37:23.329Z,0.87
2022-12-01T11:39:53.491Z,0.77
2022-12-01T11:42:26.444Z,0.74
2022-12-01T11:44:56.860Z,0.89
2022-12-01T11:47:28.280Z,0.82
2022-12-01T11:49:57.914Z,0.78
2022-12-01T11:52:30.058Z,0.95
2022-12-01T11:55:05.559Z,0.85
2022-12-01T11:57:38.799Z,0.89
2022-12-01T12:00:15.656Z,0.68
2022-12-01T12:02:59.922Z,0.81
2022-12-01T12:06:11.704Z,0.88
2022-12-01T12:09:12.535Z,0.92
2022-12-01T12:11:46.532Z,0.91
2022-12-01T12:14:30.546Z,0.92
2022-12-01T12:17:21.110Z,0.76
2022-12-01T12:20:13.128Z,0.77
2022-12-01T12:22:55.710Z,0.76
2022-12-01T12:25:33.621Z,0.83
2022-12-01T12:28:19.061Z,0.87
2022-12-01T12:30:56.462Z,0.99
2022-12-01T12:33:36.821Z,0.93
2022-12-01T12:36:16.370Z,0.91
2022-12-01T12:39:01.431Z,0.90
2022-12-01T12:41:37.777Z,1.07
2022-12-01T12:44:31.048Z,1.06
2022-12-01T12:47:10.531Z,1.03
2022-12-01T12:49:43.806Z,0.78
2022-12-01T12:52:17.688Z,0.90
2022-12-01T12:54:52.386Z,0.90
2022-12-01T12:57:34.335Z,0.88
2022-12-01T13:00:07.668Z,1.06
2022-12-01T13:02:41.786Z,0.87
2022-12-01T13:05:17.929Z,0.73
2022-12-01T13:07:51.498Z,0.45
2022-12-01T13:10:28.055Z,0.90
2022-12-01T13:13:01.482Z,0.95
2022-12-01T13:15:32.455Z,0.85
2022-12-01T13:18:06.199Z,0.98
2022-12-01T13:20:37.795Z,0.84
2022-12-01T13:23:10.062Z,0.79
2022-12-01T13:25:41.465Z,0.59
2022-12-01T13:28:18.739Z,0.79
2022-12-01T13:31:01.062Z,0.71
2022-12-01T13:33:29.904Z,0.81
2022-12-01T13:36:29.816Z,0.91
2022-12-01T13:38:58.689Z,0.90
2022-12-01T13:41:30.158Z,0.74
2022-12-01T13:44:04.923Z,0.97
2022-12-01T13:46:50.932Z,1.07
2022-12-01T13:49:37.563Z,0.96
2022-12-01T13:52:35.856Z,0.76
2022-12-01T13:55:28.018Z,0.78
2022-12-01T13:58:25.342Z,0.80
2022-12-01T14:00:53.655Z,0.92
2022-12-01T14:03:41.751Z,0.81
2022-12-01T14:06:27.296Z,0.80
2022-12-01T14:09:00.938Z,0.77
2022-12-01T14:11:32.209Z,0.77
2022-12-01T14:14:03.698Z,0.70
2022-12-01T14:16:48.385Z,0.66
2022-12-01T14:19:28.093Z,0.81
2022-12-01T14:21:57.741Z,0.88
2022-12-01T14:24:29.079Z,0.73
2022-12-01T14:26:58.778Z,0.77
2022-12-01T14:29:30.648Z,0.78
2022-12-01T14:32:22.457Z,0.87
2022-12-01T14:35:01.481Z,0.79
2022-12-01T14:37:38.966Z,0.85
2022-12-01T14:40:13.999Z,0.85
2022-12-01T14:43:06.188Z,0.78
2022-12-01T14:45:43.089Z,0.64
2022-12-01T14:48:15.289Z,0.32
2022-12-01T14:50:50.247Z,0.83
2022-12-01T14:53:27.925Z,0.92
2022-12-01T14:55:58.272Z,0.94
2022-12-01T14:58:29.921Z,0.84
2022-12-01T15:01:06.093Z,0.90
2022-12-01T15:03:38.511Z,0.79
2022-12-01T15:06:07.169Z,0.83
2022-12-01T15:08:58.152Z,0.57
2022-12-01T15:11:27.091Z,0.68
2022-12-01T15:13:57.447Z,0.73
2022-12-01T15:16:27.401Z,0.76
2022-12-01T15:18:55.788Z,0.68
2022-12-01T15:21:27.349Z,0.88
2022-12-01T15:23:57.489Z,0.88
2022-12-01T15:26:29.498Z,0.84
2022-12-01T15:29:16.882Z,0.78
2022-12-01T15:31:47.661Z,0.87
2022-12-01T15:34:19.256Z,0.84
2022-12-01T15:36:48.390Z,0.79
2022-12-01T15:39:20.059Z,0.85
2022-12-01T15:41:53.927Z,0.64
2022-12-01T15:44:28.860Z,0.71
2022-12-01T15:46:56.929Z,0.77
2022-12-01T15:49:30.344Z,0.94
2022-12-01T15:52:08.835Z,0.91
2022-12-01T15:54:38.761Z,1.06
2022-12-01T15:57:08.078Z,1.08
2022-12-01T15:59:41.137Z,1.16
2022-12-01T16:02:27.110Z,1.06
2022-12-01T16:05:03.168Z,1.09
2022-12-01T16:08:11.434Z,0.95
2022-12-01T16:10:30.950Z,1.05
2022-12-01T16:13:47.455Z,1.05
2022-12-01T16:16:30.997Z,0.96
2022-12-01T16:19:01.065Z,1.01
2022-12-01T16:21:32.126Z,0.90
2022-12-01T16:24:02.457Z,0.91
2022-12-01T16:26:31.038Z,0.86
2022-12-01T16:29:00.649Z,0.43
2022-12-01T16:31:30.425Z,0.94
2022-12-01T16:34:13.835Z,0.73
2022-12-01T16:36:51.428Z,0.92
2022-12-01T16:39:19.396Z,0.89
2022-12-01T16:41:48.177Z,0.94
2022-12-01T16:44:32.402Z,0.98
2022-12-01T16:47:01.713Z,0.91
2022-12-01T16:49:29.773Z,0.88
2022-12-01T16:51:59.340Z,0.72
2022-12-01T16:54:31.720Z,0.78
2022-12-01T16:56:59.656Z,0.84
2022-12-01T16:59:27.585Z,0.81
2022-12-01T17:01:55.584Z,0.69
2022-12-01T17:04:25.120Z,0.69
2022-12-01T17:06:53.207Z,0.81
2022-12-01T17:09:22.730Z,0.79
2022-12-01T17:11:50.962Z,0.72
2022-12-01T17:14:19.125Z,0.68
2022-12-01T17:16:47.138Z,0.86
2022-12-01T17:19:15.692Z,0.94
2022-12-01T17:21:45.195Z,1.08
2022-12-01T17:24:18.716Z,0.81
2022-12-01T17:26:47.213Z,0.83
2022-12-01T17:29:15.120Z,0.88
2022-12-01T17:31:43.211Z,0.83
2022-12-01T17:34:11.272Z,0.99
2022-12-01T17:36:39.389Z,0.88
2022-12-01T17:39:08.793Z,1.21
2022-12-01T17:41:37.010Z,1.14
2022-12-01T17:44:06.069Z,1.04
2022-12-01T17:46:34.109Z,1.01
2022-12-01T17:49:08.555Z,1.09
2022-12-01T17:51:36.285Z,1.02
2022-12-01T17:54:04.732Z,0.84
2022-12-01T17:56:34.857Z,0.48
2022-12-01T17:59:03.026Z,0.92
2022-12-01T18:01:31.089Z,0.97
2022-12-01T18:03:59.626Z,0.99
2022-12-01T18:06:28.149Z,0.89
2022-12-01T18:08:57.503Z,1.02
2022-12-01T18:11:25.621Z,0.96
2022-12-01T18:13:55.346Z,1.02
2022-12-01T18:16:25.504Z,0.91
2022-12-01T18:18:54.293Z,0.97
2022-12-01T18:21:24.365Z,0.90
2022-12-01T18:23:53.685Z,0.92
2022-12-01T18:26:22.565Z,0.89
2022-12-01T18:28:56.552Z,0.93
2022-12-01T18:31:25.125Z,1.04
2022-12-01T18:33:53.576Z,1.25
2022-12-01T18:36:23.503Z,1.35
2022-12-01T18:38:52.421Z,1.16
2022-12-01T18:41:20.617Z,1.23
2022-12-01T18:43:48.678Z,1.03
2022-12-01T18:46:19.380Z,1.07
2022-12-01T18:48:48.869Z,1.14
2022-12-01T18:51:17.027Z,1.22
2022-12-01T18:53:45.500Z,1.21
2022-12-01T18:56:15.163Z,0.97
2022-12-01T18:58:43.849Z,1.16
2022-12-01T19:01:24.061Z,1.18
2022-12-01T19:03:52.503Z,1.05
2022-12-01T19:06:20.537Z,1.00
2022-12-01T19:08:48.763Z,1.10
2022-12-01T19:11:17.013Z,1.24
2022-12-01T19:13:45.210Z,1.34
2022-12-01T19:16:15.189Z,1.44
2022-12-01T19:18:45.009Z,1.42
2022-12-01T19:21:15.369Z,1.45
2022-12-01T19:23:43.846Z,1.41
2022-12-01T19:26:14.147Z,1.42
2022-12-01T19:28:45.521Z,1.38
2022-12-01T19:31:16.616Z,1.20
2022-12-01T19:33:46.037Z,1.23
2022-12-01T19:36:15.413Z,1.12
2022-12-01T19:38:44.545Z,1.14
2022-12-01T19:41:13.750Z,1.09
2022-12-01T19:43:42.288Z,1.19
2022-12-01T19:46:13.542Z,1.26
2022-12-01T19:48:41.777Z,1.33
2022-12-01T19:51:18.060Z,1.29
2022-12-01T19:53:46.104Z,1.48
2022-12-01T19:56:14.333Z,1.43
2022-12-01T19:58:42.733Z,1.43
2022-12-01T20:01:13.162Z,1.54
2022-12-01T20:03:41.496Z,1.52
2022-12-01T20:06:13.815Z,1.39
2022-12-01T20:08:42.078Z,1.37
2022-12-01T20:11:11.053Z,1.42
2022-12-01T20:13:41.158Z,1.15
2022-12-01T20:16:10.956Z,1.15
2022-12-01T20:18:40.464Z,1.21
2022-12-01T20:21:11.409Z,1.22
2022-12-01T20:23:41.174Z,1.24
2022-12-01T20:26:10.627Z,1.07
2022-12-01T20:28:39.968Z,1.08
2022-12-01T20:31:11.221Z,1.04
2022-12-01T20:33:39.565Z,0.97
2022-12-01T20:36:08.036Z,1.10
2022-12-01T20:38:36.297Z,0.97
2022-12-01T20:41:06.671Z,0.99
2022-12-01T20:43:35.598Z,0.75
2022-12-01T20:46:03.832Z,0.77
2022-12-01T20:48:32.267Z,0.70
2022-12-01T20:51:00.978Z,0.65
2022-12-01T20:53:29.616Z,0.72
2022-12-01T20:55:57.599Z,0.85
2022-12-01T20:58:26.915Z,0.88
2022-12-01T21:00:54.898Z,0.86
2022-12-01T21:03:22.784Z,0.83
2022-12-01T21:05:50.978Z,0.87
2022-12-01T21:08:19.130Z,0.70
2022-12-01T21:10:47.325Z,0.71
2022-12-01T21:13:37.533Z,0.53
2022-12-01T21:16:14.211Z,0.79
2022-12-01T21:18:50.685Z,0.91
2022-12-01T21:21:25.440Z,0.96
2022-12-01T21:24:12.596Z,0.96
2022-12-01T21:26:42.293Z,0.88
2022-12-01T21:29:19.655Z,0.92
2022-12-01T21:31:51.987Z,0.95
2022-12-01T21:34:22.034Z,0.93
2022-12-01T21:36:51.763Z,0.90
2022-12-01T21:39:21.768Z,0.92
2022-12-01T21:41:51.135Z,0.61
2022-12-01T21:44:21.184Z,0.87
2022-12-01T21:46:54.480Z,0.72
2022-12-01T21:49:29.657Z,0.84
2022-12-01T21:51:57.581Z,0.74
2022-12-01T21:54:25.559Z,0.87
2022-12-01T21:56:58.509Z,0.86
2022-12-01T21:59:26.605Z,0.80
2022-12-01T22:01:58.026Z,1.15
2022-12-01T22:04:30.142Z,1.07
2022-12-01T22:06:59.030Z,1.05
2022-12-01T22:09:31.187Z,1.07
2022-12-01T22:12:01.685Z,0.84
2022-12-01T22:14:33.674Z,0.94
2022-12-01T22:17:17.874Z,0.85
2022-12-01T22:19:48.411Z,0.88
2022-12-01T22:22:23.979Z,0.93
2022-12-01T22:24:53.563Z,0.91
2022-12-01T22:27:31.178Z,0.94
2022-12-01T22:30:02.218Z,0.87
2022-12-01T22:32:39.630Z,0.87
2022-12-01T22:35:22.958Z,0.74
2022-12-01T22:37:53.065Z,0.78
2022-12-01T22:40:38.152Z,0.95
2022-12-01T22:43:22.630Z,0.90
2022-12-01T22:46:03.113Z,0.78
2022-12-01T22:48:36.896Z,0.98
2022-12-01T22:51:24.237Z,0.71
2022-12-01T22:53:58.562Z,0.70
2022-12-01T22:56:32.102Z,0.95
2022-12-01T22:59:00.228Z,0.97
2022-12-01T23:01:30.801Z,1.01
2022-12-01T23:04:14.837Z,0.98
2022-12-01T23:07:00.605Z,1.01
2022-12-01T23:09:33.907Z,1.00
2022-12-01T23:12:13.003Z,0.98
2022-12-01T23:14:45.573Z,1.05
2022-12-01T23:17:17.754Z,0.99
2022-12-01T23:19:47.570Z,0.98
2022-12-01T23:22:16.992Z,0.99
2022-12-01T23:24:45.101Z,0.92
2022-12-01T23:27:14.088Z,1.06
2022-12-01T23:29:42.144Z,0.99
2022-12-01T23:32:11.461Z,1.01
2022-12-01T23:34:39.689Z,1.10
2022-12-01T23:37:28.858Z,0.98
2022-12-01T23:39:57.409Z,0.96
2022-12-01T23:42:25.397Z,0.98
2022-12-01T23:44:53.949Z,0.98
2022-12-01T23:47:26.509Z,0.98
2022-12-01T23:49:59.121Z,1.02
2022-12-01T23:52:33.638Z,0.99
2022-12-01T23:55:01.895Z,1.06
2022-12-01T23:57:32.104Z,1.18
